Time;durP1;ratioP1;P1;durP2;ratioP2;P2;SDS_P1;SDS_P2;PMS_P1;PMS_P2;Temp;Humidity;BMP_temperature;BMP_pressure;BME280_temperature;BME280_humidity;BME280_pressure;Samples;Min_cycle;Max_cycle;Signal;HPM_P1;HPM_P2
2022/03/20 00:00:13;;;;;;;11.10;4.10;;;;;;;5.54;54.10;103240.53;5047362;28;20036;-88
2022/03/20 00:02:40;;;;;;;5.90;3.97;;;;;;;5.57;54.60;103241.34;5052408;28;20025;-87
2022/03/20 00:05:06;;;;;;;6.35;3.80;;;;;;;5.49;54.71;103237.09;5045702;28;20021;-90
2022/03/20 00:07:33;;;;;;;9.00;4.30;;;;;;;5.37;55.01;103225.00;5056008;28;20048;-89
2022/03/20 00:10:00;;;;;;;8.65;4.57;;;;;;;5.44;55.07;103225.78;5042195;28;20105;-87
2022/03/20 00:12:25;;;;;;;10.13;4.80;;;;;;;5.37;55.37;103217.97;5041615;28;20018;-89
2022/03/20 00:14:51;;;;;;;8.32;4.50;;;;;;;5.33;55.31;103216.28;5037625;28;20093;-86
2022/03/20 00:17:16;;;;;;;6.97;4.43;;;;;;;5.32;55.58;103229.47;5033059;28;20161;-87
2022/03/20 00:19:42;;;;;;;9.93;4.45;;;;;;;5.30;55.69;103223.38;5031923;28;20029;-86
2022/03/20 00:22:08;;;;;;;8.55;4.30;;;;;;;5.21;55.69;103205.91;5031513;28;20489;-86
2022/03/20 00:24:34;;;;;;;8.00;4.70;;;;;;;5.18;55.94;103196.31;5031760;28;20025;-87
2022/03/20 00:27:00;;;;;;;10.02;5.80;;;;;;;5.26;56.05;103217.28;5031588;28;20492;-87
2022/03/20 00:29:26;;;;;;;9.63;5.40;;;;;;;5.18;55.96;103206.00;5032210;28;20047;-87
2022/03/20 00:31:53;;;;;;;10.07;5.43;;;;;;;5.18;56.47;103201.59;5035365;28;20029;-87
2022/03/20 00:34:18;;;;;;;19.27;12.77;;;;;;;5.17;56.63;103198.97;5036707;28;20060;-88
2022/03/20 00:36:44;;;;;;;22.10;15.50;;;;;;;5.12;56.90;103191.13;5037168;28;20029;-87
2022/03/20 00:39:09;;;;;;;12.60;7.65;;;;;;;5.07;56.98;103176.31;5038732;28;20032;-87
2022/03/20 00:41:34;;;;;;;10.30;6.18;;;;;;;5.08;57.05;103180.66;5036913;28;20022;-88
2022/03/20 00:44:03;;;;;;;13.10;9.13;;;;;;;5.03;57.28;103175.50;5037223;28;20033;-87
2022/03/20 00:46:28;;;;;;;15.30;9.80;;;;;;;4.91;57.21;103151.97;5035856;28;20353;-87
2022/03/20 00:48:54;;;;;;;14.75;6.88;;;;;;;4.92;57.48;103156.34;5036920;28;20025;-87
2022/03/20 00:51:19;;;;;;;11.07;6.13;;;;;;;4.89;57.48;103162.53;5035267;28;20022;-87
2022/03/20 00:53:45;;;;;;;15.48;10.88;;;;;;;4.94;57.33;103165.09;5036672;28;20400;-88
2022/03/20 00:56:14;;;;;;;14.35;8.93;;;;;;;4.81;57.58;103144.22;5034980;28;20025;-87
2022/03/20 00:58:39;;;;;;;10.85;6.95;;;;;;;4.78;58.09;103143.38;5035078;28;20318;-88
2022/03/20 01:01:05;;;;;;;10.85;6.53;;;;;;;4.83;58.09;103154.75;5034644;28;20018;-88
2022/03/20 01:03:30;;;;;;;13.73;6.93;;;;;;;4.75;58.13;103153.97;5036782;28;20036;-89
2022/03/20 01:05:56;;;;;;;9.52;6.40;;;;;;;4.73;58.07;103151.38;5037101;28;20037;-88
2022/03/20 01:08:21;;;;;;;11.80;6.63;;;;;;;4.73;58.16;103148.75;5037003;28;20026;-88
2022/03/20 01:10:47;;;;;;;8.60;6.65;;;;;;;4.64;58.58;103138.34;5035855;28;20086;-88
2022/03/20 01:13:15;;;;;;;10.00;6.95;;;;;;;4.64;59.04;103136.56;5034976;28;20029;-90
2022/03/20 01:15:44;;;;;;;11.25;7.00;;;;;;;4.60;58.85;103134.03;5036725;28;20036;-88
2022/03/20 01:18:09;;;;;;;12.15;6.85;;;;;;;4.51;58.87;103124.47;5036434;28;20139;-88
2022/03/20 01:20:34;;;;;;;13.18;7.13;;;;;;;4.52;59.14;103128.00;5035058;28;20116;-88
2022/03/20 01:23:00;;;;;;;11.00;6.78;;;;;;;4.52;59.19;103135.88;5036304;28;20037;-89
2022/03/20 01:25:25;;;;;;;11.85;6.93;;;;;;;4.50;58.96;103130.66;5035393;28;20049;-88
2022/03/20 01:27:51;;;;;;;12.23;6.97;;;;;;;4.42;59.47;103117.59;5036374;28;20091;-88
2022/03/20 01:30:16;;;;;;;10.43;6.97;;;;;;;4.38;59.33;103107.13;5054523;28;20024;-89
2022/03/20 01:32:42;;;;;;;10.95;7.82;;;;;;;4.37;59.57;103114.16;5052828;28;20029;-89
2022/03/20 01:35:09;;;;;;;14.02;8.48;;;;;;;4.34;59.58;103108.06;5037052;28;20021;-88
2022/03/20 01:37:50;;;;;;;13.70;9.05;;;;;;;4.37;59.33;103108.91;5036845;28;20025;-88
2022/03/20 01:40:16;;;;;;;11.63;7.75;;;;;;;4.31;59.56;103093.19;5035775;28;20060;-91
2022/03/20 01:42:45;;;;;;;14.30;9.05;;;;;;;4.24;59.63;103075.75;5036181;28;20468;-89
2022/03/20 01:45:21;;;;;;;14.17;9.23;;;;;;;4.28;59.65;103088.00;5036565;28;20022;-88
2022/03/20 01:47:51;;;;;;;12.10;8.30;;;;;;;4.22;59.56;103078.41;5035198;28;20417;-88
2022/03/20 01:50:21;;;;;;;16.95;10.35;;;;;;;4.11;59.71;103056.63;5034934;28;20100;-89
2022/03/20 01:52:50;;;;;;;14.30;10.13;;;;;;;4.17;59.69;103060.97;5036004;28;20106;-88
2022/03/20 01:55:18;;;;;;;17.17;10.30;;;;;;;4.13;59.54;103060.13;5035410;28;20369;-88
2022/03/20 01:57:45;;;;;;;14.52;10.75;;;;;;;4.12;59.60;103065.41;5035345;28;20033;-89
2022/03/20 02:00:15;;;;;;;16.77;10.48;;;;;;;4.07;59.27;103054.97;5036139;28;20041;-89
2022/03/20 02:02:41;;;;;;;16.85;11.20;;;;;;;4.12;59.28;103066.28;5036091;28;20029;-88
2022/03/20 02:05:09;;;;;;;20.92;11.38;;;;;;;4.12;59.33;103062.78;5034442;28;20048;-88
2022/03/20 02:07:35;;;;;;;17.00;11.68;;;;;;;4.05;59.34;103060.22;5035915;28;20025;-89
2022/03/20 02:10:01;;;;;;;17.23;12.30;;;;;;;4.07;59.51;103062.84;5034389;28;20045;-87
2022/03/20 02:12:29;;;;;;;18.63;12.60;;;;;;;4.05;59.38;103057.59;5034411;28;20384;-88
2022/03/20 02:15:01;;;;;;;20.20;12.82;;;;;;;4.00;59.40;103045.41;5034817;28;20091;-87
2022/03/20 02:17:30;;;;;;;18.77;12.70;;;;;;;3.94;59.47;103035.84;5036051;28;20021;-88
2022/03/20 02:19:56;;;;;;;18.98;13.60;;;;;;;3.95;59.30;103036.72;5035562;28;20083;-89
2022/03/20 02:22:22;;;;;;;18.23;13.38;;;;;;;3.94;59.33;103043.72;5033974;28;20452;-89
2022/03/20 02:24:49;;;;;;;19.52;14.65;;;;;;;3.94;59.33;103048.13;5035427;28;20141;-89
2022/03/20 02:27:24;;;;;;;18.48;13.95;;;;;;;3.93;59.24;103039.38;5034716;28;20057;-88
2022/03/20 02:29:59;;;;;;;20.45;14.75;;;;;;;3.91;59.36;103032.38;5034996;28;20103;-88
2022/03/20 02:32:29;;;;;;;20.20;14.60;;;;;;;3.85;59.58;103028.94;5034957;28;20208;-88
2022/03/20 02:34:57;;;;;;;20.77;14.93;;;;;;;3.78;59.36;103018.53;5034206;28;20033;-88
2022/03/20 02:37:24;;;;;;;20.98;14.80;;;;;;;3.77;59.41;103012.41;5034953;28;20087;-88
2022/03/20 02:39:53;;;;;;;25.80;16.38;;;;;;;3.70;59.55;103003.72;5017056;28;20033;-88
2022/03/20 02:42:19;;;;;;;;;;;;;;;3.87;58.59;103028.94;5035822;28;20469;-89
2022/03/20 02:45:00;;;;;;;22.05;15.57;;;;;;;3.80;58.97;103024.66;5034092;28;19963;-88
2022/03/20 02:47:27;;;;;;;22.45;16.00;;;;;;;3.77;59.19;103015.03;5035073;28;20112;-87
2022/03/20 02:49:58;;;;;;;24.63;16.15;;;;;;;3.72;59.04;103008.97;5035800;28;20497;-88
2022/03/20 02:52:46;;;;;;;23.70;15.57;;;;;;;3.68;59.23;102994.13;5035868;28;20112;-87
2022/03/20 02:55:22;;;;;;;22.88;16.30;;;;;;;3.65;59.25;102994.19;5036455;28;20120;-88
2022/03/20 02:57:48;;;;;;;23.73;17.02;;;;;;;3.64;59.28;103000.31;5042127;28;20032;-88
2022/03/20 03:00:17;;;;;;;26.10;16.35;;;;;;;3.68;59.14;103008.16;5042081;28;20021;-89
2022/03/20 03:02:44;;;;;;;23.00;16.92;;;;;;;3.62;59.14;102991.59;5034773;28;20040;-88
2022/03/20 03:05:17;;;;;;;26.13;17.30;;;;;;;3.57;58.98;102978.50;5053896;28;20010;-89
2022/03/20 03:13:17;;;;;;;26.42;16.92;;;;;;;3.63;58.89;102988.06;5042355;28;20399;-90
2022/03/20 03:15:45;;;;;;;22.10;16.92;;;;;;;3.58;59.33;102976.72;5035712;28;20025;-89
2022/03/20 03:18:15;;;;;;;24.30;17.57;;;;;;;3.57;59.25;102973.25;5037470;28;20136;-89
2022/03/20 03:20:45;;;;;;;25.33;17.65;;;;;;;3.57;59.09;102973.25;5035612;28;20041;-89
2022/03/20 03:23:11;;;;;;;25.23;17.90;;;;;;;3.47;59.31;102964.63;5035094;28;20124;-88
2022/03/20 03:25:37;;;;;;;30.13;18.02;;;;;;;3.44;59.31;102956.75;5034755;28;20057;-87
2022/03/20 03:28:04;;;;;;;28.83;19.10;;;;;;;3.48;59.28;102968.09;5036422;28;20039;-88
2022/03/20 03:30:32;;;;;;;26.83;17.83;;;;;;;3.49;59.19;102962.81;5037375;28;20033;-88
2022/03/20 03:32:57;;;;;;;25.65;18.88;;;;;;;3.47;59.10;102964.63;5038248;28;20112;-89
2022/03/20 03:38:10;;;;;;;28.80;19.38;;;;;;;3.35;59.51;102938.50;5038827;28;20065;-88
2022/03/20 03:40:37;;;;;;;30.95;19.20;;;;;;;3.32;59.42;102939.41;5042474;28;20404;-89
2022/03/20 03:43:02;;;;;;;24.92;18.30;;;;;;;3.39;59.30;102942.81;5045558;28;20043;-88
2022/03/20 03:45:29;;;;;;;25.75;18.90;;;;;;;3.32;59.44;102930.66;5044354;28;20061;-88
2022/03/20 03:47:54;;;;;;;27.83;19.25;;;;;;;3.30;59.57;102922.81;5048378;28;20018;-88
2022/03/20 03:50:22;;;;;;;31.75;19.70;;;;;;;3.28;59.64;102921.06;5045706;28;20056;-88
2022/03/20 03:52:48;;;;;;;28.85;18.98;;;;;;;3.21;59.67;102916.78;5039460;28;20040;-88
2022/03/20 03:55:14;;;;;;;31.52;19.85;;;;;;;3.19;59.97;102908.94;5039460;28;20452;-88
2022/03/20 03:57:47;;;;;;;29.58;20.20;;;;;;;3.24;59.86;102922.88;5041762;28;20022;-89
2022/03/20 04:00:14;;;;;;;28.48;19.67;;;;;;;3.23;60.21;102925.50;5039785;28;20026;-89
2022/03/20 04:02:39;;;;;;;26.40;19.83;;;;;;;3.06;60.61;102902.94;5040356;28;20022;-89
2022/03/20 04:05:08;;;;;;;28.23;20.15;;;;;;;3.13;60.21;102915.13;5038090;28;20013;-89
2022/03/20 04:07:35;;;;;;;28.43;19.53;;;;;;;3.07;60.54;102906.47;5040792;28;20041;-89
2022/03/20 04:10:04;;;;;;;28.67;20.15;;;;;;;3.04;60.61;102896.84;5039684;28;20675;-89
2022/03/20 04:12:30;;;;;;;26.33;19.15;;;;;;;3.00;60.70;102894.28;5040581;28;20047;-89
2022/03/20 04:15:00;;;;;;;28.02;19.10;;;;;;;2.96;60.70;102877.69;5040184;28;20065;-89
2022/03/20 04:17:25;;;;;;;27.60;19.50;;;;;;;2.94;60.84;102877.72;5041879;28;20453;-89
2022/03/20 04:19:51;;;;;;;25.27;19.27;;;;;;;2.85;61.22;102871.69;5041099;28;20034;-89
2022/03/20 04:22:18;;;;;;;28.30;19.95;;;;;;;2.90;61.37;102883.03;5039387;28;20035;-88
2022/03/20 04:24:46;;;;;;;29.77;19.90;;;;;;;2.88;61.36;102877.81;5039666;28;20021;-88
2022/03/20 04:27:13;;;;;;;28.30;20.80;;;;;;;2.87;61.51;102878.69;5039466;28;20110;-89
2022/03/20 04:29:38;;;;;;;29.33;21.25;;;;;;;2.78;61.57;102869.16;5039760;28;20448;-87
2022/03/20 04:32:05;;;;;;;29.15;21.23;;;;;;;2.70;61.83;102852.63;5040433;28;20026;-88
2022/03/20 04:34:31;;;;;;;26.98;20.60;;;;;;;2.76;61.63;102859.56;5041796;28;20099;-89
2022/03/20 04:36:56;;;;;;;28.83;20.65;;;;;;;2.73;61.83;102855.22;5038807;28;20218;-88
2022/03/20 04:39:23;;;;;;;28.00;19.73;;;;;;;2.70;61.78;102847.41;5040552;28;20068;-88
2022/03/20 04:41:49;;;;;;;28.48;21.55;;;;;;;2.65;61.97;102849.19;5041924;28;20196;-88
2022/03/20 04:44:15;;;;;;;30.02;21.85;;;;;;;2.65;61.66;102850.94;5040910;28;20029;-89
2022/03/20 04:46:45;;;;;;;28.60;20.23;;;;;;;2.62;61.82;102859.72;5041101;28;20025;-89
2022/03/20 05:00:09;;;;;;;30.33;20.27;;;;;;;2.47;62.29;102838.91;5040932;28;20048;-88
2022/03/20 05:02:35;;;;;;;27.77;20.33;;;;;;;2.46;62.50;102838.03;5040120;28;20022;-88
2022/03/20 05:05:00;;;;;;;27.05;20.42;;;;;;;2.50;62.80;102838.84;5038818;28;20482;-89
2022/03/20 05:07:25;;;;;;;28.40;20.50;;;;;;;2.40;62.47;102827.63;5038899;28;20080;-88
2022/03/20 05:15:19;;;;;;;31.55;20.70;;;;;;;2.42;62.26;102827.59;5054700;28;20063;-90
2022/03/20 05:17:46;;;;;;;30.58;21.85;;;;;;;2.42;62.72;102832.84;5056805;28;20093;-88
2022/03/20 05:20:12;;;;;;;28.60;20.33;;;;;;;2.37;63.05;102828.50;5055534;28;20025;-89
2022/03/20 05:22:38;;;;;;;30.95;20.92;;;;;;;2.35;62.81;102822.41;5049718;28;20038;-88
2022/03/20 05:25:10;;;;;;;30.63;20.58;;;;;;;2.36;62.73;102823.28;5045813;28;20029;-89
2022/03/20 05:27:38;;;;;;;29.20;21.10;;;;;;;2.29;62.58;102813.75;5053076;28;20033;-88
2022/03/20 05:30:07;;;;;;;29.70;21.27;;;;;;;2.20;62.73;102801.59;5053783;28;20075;-88
2022/03/20 05:32:37;;;;;;;26.55;19.92;;;;;;;2.24;62.39;102803.28;5049492;28;20027;-88
2022/03/20 05:35:08;;;;;;;30.55;20.55;;;;;;;2.17;62.59;102806.88;5047661;28;20102;-88
2022/03/20 05:37:34;;;;;;;30.52;20.40;;;;;;;2.19;63.09;102800.72;5040606;28;20384;-88
2022/03/20 05:40:00;;;;;;;30.90;20.75;;;;;;;2.20;62.71;102805.09;5047992;28;20013;-89
2022/03/20 05:42:30;;;;;;;29.00;20.27;;;;;;;2.17;63.00;102805.09;5057274;28;20060;-89
2022/03/20 05:44:56;;;;;;;31.38;21.25;;;;;;;2.17;62.88;102796.38;5046209;28;20026;-87
2022/03/20 05:47:24;;;;;;;28.35;20.63;;;;;;;2.16;62.74;102778.91;5037528;28;20373;-88
2022/03/20 05:49:49;;;;;;;31.67;19.73;;;;;;;2.18;63.23;102793.75;5038311;28;20730;-88
2022/03/20 05:52:15;;;;;;;29.13;20.13;;;;;;;2.18;62.63;102787.63;5038918;28;20025;-88
2022/03/20 05:54:40;;;;;;;27.98;20.52;;;;;;;2.17;62.88;102791.13;5038159;28;20040;-89
2022/03/20 05:59:54;;;;;;;29.85;20.00;;;;;;;2.12;62.70;102791.19;5043710;28;20031;-88
2022/03/20 06:02:24;;;;;;;32.78;21.05;;;;;;;2.08;62.18;102783.34;5051392;28;20025;-87
2022/03/20 06:04:49;;;;;;;27.08;19.88;;;;;;;2.08;62.47;102783.34;5039406;28;20026;-88
2022/03/20 06:07:15;;;;;;;28.75;20.42;;;;;;;2.10;62.53;102787.72;5043680;28;20488;-89
2022/03/20 06:09:40;;;;;;;29.10;20.05;;;;;;;2.09;62.04;102774.63;5038212;28;20021;-88
2022/03/20 06:12:07;;;;;;;30.48;20.17;;;;;;;2.07;62.15;102773.78;5035790;28;20087;-88
2022/03/20 06:14:34;;;;;;;29.10;20.33;;;;;;;2.02;61.88;102766.81;5035817;28;20025;-88
2022/03/20 06:17:00;;;;;;;28.80;20.45;;;;;;;2.07;61.59;102772.00;5035373;28;20033;-88
2022/03/20 06:19:25;;;;;;;27.83;19.10;;;;;;;2.07;61.35;102769.38;5035252;28;20032;-88
2022/03/20 06:21:51;;;;;;;30.77;20.27;;;;;;;2.17;61.22;102783.28;5035940;28;20029;-88
2022/03/20 06:24:16;;;;;;;27.27;20.20;;;;;;;2.15;61.16;102767.56;5034080;28;20124;-88
2022/03/20 06:26:41;;;;;;;28.15;19.77;;;;;;;2.21;61.05;102782.34;5034617;28;20075;-88
2022/03/20 06:29:07;;;;;;;26.35;19.77;;;;;;;2.21;60.36;102777.09;5035968;28;20061;-88
2022/03/20 06:31:32;;;;;;;26.30;20.13;;;;;;;2.25;60.71;102778.81;5037275;28;20044;-88
2022/03/20 06:33:59;;;;;;;30.25;19.25;;;;;;;2.29;60.01;102785.75;5036850;28;20496;-89
2022/03/20 06:36:25;;;;;;;27.75;19.98;;;;;;;2.20;60.07;102772.75;5034713;28;20026;-88
2022/03/20 06:38:50;;;;;;;26.05;18.90;;;;;;;2.24;59.82;102763.97;5035296;28;20036;-87
2022/03/20 06:41:23;;;;;;;26.42;19.73;;;;;;;2.29;59.29;102762.16;5036160;28;20033;-87
2022/03/20 06:43:51;;;;;;;29.20;19.52;;;;;;;2.42;59.19;102772.53;5035824;28;20025;-86
2022/03/20 06:46:16;;;;;;;25.83;19.08;;;;;;;2.47;58.68;102765.47;5034978;28;20068;-87
2022/03/20 06:48:42;;;;;;;27.00;19.33;;;;;;;2.49;58.86;102759.31;5035170;28;20021;-88
2022/03/20 06:51:07;;;;;;;24.70;18.65;;;;;;;2.56;58.72;102760.09;5037293;28;20044;-87
2022/03/20 06:53:33;;;;;;;31.30;19.42;;;;;;;2.55;58.44;102742.66;5036360;28;20091;-87
2022/03/20 06:55:59;;;;;;;28.60;19.33;;;;;;;2.63;57.79;102746.03;5035401;28;20037;-88
2022/03/20 06:58:24;;;;;;;27.67;18.25;;;;;;;2.73;57.65;102746.75;5035804;28;20030;-88
2022/03/20 07:00:50;;;;;;;30.42;18.52;;;;;;;2.81;57.48;102741.44;5036349;28;20039;-86
2022/03/20 07:03:16;;;;;;;27.95;19.48;;;;;;;2.82;57.26;102733.53;5038543;28;20025;-89
2022/03/20 07:05:42;;;;;;;26.75;18.85;;;;;;;2.95;56.92;102744.75;5036351;28;20087;-88
2022/03/20 07:08:08;;;;;;;30.15;18.48;;;;;;;2.96;56.80;102742.09;5036972;28;20021;-89
2022/03/20 07:10:34;;;;;;;28.10;18.00;;;;;;;2.99;57.03;102721.94;5035106;28;20112;-86
2022/03/20 07:15:48;;;;;;;27.05;18.48;;;;;;;3.14;55.95;102722.56;5035547;28;20151;-87
2022/03/20 07:18:16;;;;;;;26.52;18.10;;;;;;;3.18;55.77;102718.16;5034152;28;20201;-88
2022/03/20 07:20:46;;;;;;;25.85;18.73;;;;;;;3.23;55.40;102716.31;5035841;28;20026;-89
2022/03/20 07:23:14;;;;;;;26.00;17.98;;;;;;;3.30;55.53;102720.56;5032413;28;20026;-89
2022/03/20 07:31:14;;;;;;;25.05;17.92;;;;;;;3.45;54.69;102703.69;5022762;28;20103;-89
2022/03/20 07:33:40;;;;;;;25.08;17.73;;;;;;;3.50;53.43;102706.25;5034822;28;20029;-88
2022/03/20 07:36:06;;;;;;;25.65;18.38;;;;;;;3.54;53.25;102700.03;5032389;28;20042;-87
2022/03/20 07:38:35;;;;;;;24.23;17.45;;;;;;;3.59;53.07;102705.22;5032590;28;20034;-88
2022/03/20 07:41:23;;;;;;;26.63;17.90;;;;;;;3.65;53.05;102705.13;5014482;28;20042;-87
2022/03/20 07:43:49;;;;;;;26.70;17.83;;;;;;;3.65;52.32;102710.38;5021449;28;20034;-87
2022/03/20 07:46:14;;;;;;;27.02;18.35;;;;;;;3.70;52.13;102705.91;5034892;28;20055;-87
2022/03/20 07:48:40;;;;;;;25.15;18.33;;;;;;;3.74;51.92;102711.97;5023328;28;20030;-87
2022/03/20 07:51:06;;;;;;;27.10;18.05;;;;;;;3.75;52.07;102703.16;5029700;28;20049;-88
2022/03/20 07:53:38;;;;;;;24.95;17.70;;;;;;;3.79;51.51;102704.88;5030123;28;20040;-87
2022/03/20 07:56:04;;;;;;;24.88;16.98;;;;;;;3.81;51.22;102706.56;5018536;28;20063;-87
2022/03/20 07:58:29;;;;;;;24.70;17.30;;;;;;;3.83;51.11;102707.41;5025045;28;20489;-89
2022/03/20 08:00:55;;;;;;;30.75;17.15;;;;;;;3.86;50.64;102712.63;5028927;28;20709;-88
2022/03/20 08:03:20;;;;;;;25.27;17.42;;;;;;;3.87;51.10;102709.06;5038216;28;20033;-88
2022/03/20 08:05:45;;;;;;;25.85;17.40;;;;;;;3.89;50.84;102698.53;5037718;28;20041;-87
2022/03/20 08:08:14;;;;;;;25.25;17.42;;;;;;;3.89;51.34;102699.41;5036030;28;20104;-88
2022/03/20 08:10:40;;;;;;;27.90;16.77;;;;;;;3.91;50.44;102701.13;5016109;28;20042;-87
2022/03/20 08:13:05;;;;;;;25.38;17.20;;;;;;;3.91;50.29;102695.88;5032434;28;20044;-88
2022/03/20 08:15:31;;;;;;;23.63;16.75;;;;;;;3.91;50.35;102688.00;5047965;28;20037;-88
2022/03/20 08:17:57;;;;;;;24.65;16.98;;;;;;;3.96;50.63;102696.66;5033240;28;20032;-88
2022/03/20 08:20:24;;;;;;;26.27;16.52;;;;;;;3.97;49.75;102699.25;5032247;28;20037;-87
2022/03/20 08:22:49;;;;;;;26.10;17.20;;;;;;;3.96;50.85;102702.78;5029399;28;20039;-87
2022/03/20 08:25:15;;;;;;;24.83;17.55;;;;;;;3.94;50.21;102691.44;5025339;28;20033;-89
2022/03/20 08:27:49;;;;;;;24.55;16.70;;;;;;;3.94;50.23;102688.81;5025439;28;20045;-88
2022/03/20 08:30:17;;;;;;;30.65;17.60;;;;;;;3.99;50.80;102691.34;5030980;28;20518;-89
2022/03/20 08:32:43;;;;;;;23.33;16.95;;;;;;;3.93;49.88;102666.06;5031059;28;20334;-89
2022/03/20 08:35:13;;;;;;;28.63;18.48;;;;;;;3.96;50.75;102659.84;5032593;28;20042;-88
2022/03/20 08:37:43;;;;;;;23.55;17.35;;;;;;;4.04;50.40;102671.94;5033064;28;20460;-88
2022/03/20 08:40:15;;;;;;;29.52;17.38;;;;;;;4.11;50.48;102679.72;5030818;28;20028;-88
2022/03/20 08:42:57;;;;;;;25.73;16.48;;;;;;;4.12;51.26;102674.44;5036732;28;20049;-88
2022/03/20 08:45:29;;;;;;;25.80;18.05;;;;;;;4.17;50.15;102675.19;5037264;28;20029;-88
2022/03/20 08:47:54;;;;;;;24.55;16.52;;;;;;;4.16;49.76;102672.59;5035155;28;20032;-90
2022/03/20 08:50:20;;;;;;;26.60;16.95;;;;;;;4.16;49.99;102662.09;5053254;28;20014;-90
2022/03/20 08:52:48;;;;;;;26.23;17.77;;;;;;;4.20;49.89;102675.16;5048826;28;20140;-89
2022/03/20 08:55:15;;;;;;;24.17;17.35;;;;;;;4.23;49.45;102669.81;5044503;28;20365;-89
2022/03/20 08:57:46;;;;;;;24.17;18.13;;;;;;;4.19;49.67;102669.91;5051332;28;20029;-88
2022/03/20 09:00:20;;;;;;;29.30;17.88;;;;;;;4.29;49.62;102679.34;5041560;28;20017;-89
2022/03/20 09:02:50;;;;;;;28.13;18.27;;;;;;;4.26;49.51;102680.28;5046688;28;20060;-89
2022/03/20 09:05:17;;;;;;;25.33;17.63;;;;;;;4.29;49.61;102674.09;5045242;28;20029;-88
2022/03/20 09:07:45;;;;;;;26.65;18.00;;;;;;;4.32;49.67;102670.53;5042978;28;20029;-88
2022/03/20 09:10:14;;;;;;;25.45;17.40;;;;;;;4.39;49.78;102670.34;5035494;28;20116;-88
2022/03/20 09:12:40;;;;;;;29.42;18.00;;;;;;;4.38;50.64;102657.22;5038429;28;20021;-88
2022/03/20 09:15:09;;;;;;;26.42;18.60;;;;;;;4.47;49.27;102662.31;5036953;28;20040;-87
2022/03/20 09:20:19;;;;;;;24.40;18.08;;;;;;;4.69;49.45;102643.41;5021611;28;20152;-87
2022/03/20 09:22:44;;;;;;;23.63;17.67;;;;;;;4.88;49.84;102636.81;5037593;28;20044;-87
2022/03/20 09:25:10;;;;;;;26.00;17.92;;;;;;;5.21;48.96;102649.19;5035337;28;20366;-88
2022/03/20 09:27:35;;;;;;;26.88;18.17;;;;;;;5.55;48.53;102633.38;5035648;28;20022;-87
2022/03/20 09:30:03;;;;;;;23.10;17.45;;;;;;;5.86;48.31;102619.34;5041697;28;20037;-89
2022/03/20 09:32:28;;;;;;;25.70;18.38;;;;;;;6.12;45.59;102616.00;5042569;28;20033;-86
2022/03/20 09:34:55;;;;;;;24.25;18.30;;;;;;;6.31;46.28;102613.66;5036641;28;20395;-87
2022/03/20 09:37:20;;;;;;;29.40;18.42;;;;;;;6.47;45.16;102614.91;5036155;28;20111;-84
2022/03/20 09:39:46;;;;;;;27.38;17.63;;;;;;;6.52;44.63;102612.16;5037208;28;20037;-86
2022/03/20 09:42:18;;;;;;;26.52;18.90;;;;;;;6.59;45.37;102603.09;5036389;28;20074;-87
2022/03/20 09:44:44;;;;;;;25.70;17.63;;;;;;;6.59;44.06;102583.78;5023929;28;20036;-87
2022/03/20 09:47:17;;;;;;;26.40;19.13;;;;;;;6.71;44.48;102596.59;5027941;28;20042;-88
2022/03/20 09:49:44;;;;;;;27.60;18.92;;;;;;;6.79;43.92;102598.97;5037254;28;20034;-88
2022/03/20 09:52:09;;;;;;;25.95;18.63;;;;;;;6.89;44.67;102594.25;5034176;28;20037;-86
2022/03/20 09:54:35;;;;;;;28.02;19.05;;;;;;;6.85;44.22;102586.44;5030470;28;20704;-86
2022/03/20 09:57:07;;;;;;;24.50;17.90;;;;;;;6.98;43.90;102593.97;5050918;28;20045;-86
2022/03/20 09:59:33;;;;;;;25.38;18.23;;;;;;;6.97;44.23;102585.16;5053407;28;20009;-86
2022/03/20 10:02:08;;;;;;;30.30;19.20;;;;;;;7.07;43.73;102612.13;5036009;28;20046;-86
2022/03/20 10:04:51;;;;;;;26.23;18.20;;;;;;;7.02;44.34;102591.16;5032656;28;20186;-85
2022/03/20 10:07:22;;;;;;;25.95;19.95;;;;;;;7.05;43.38;102595.47;5020437;28;20038;-85
2022/03/20 10:10:05;;;;;;;25.65;18.80;;;;;;;7.17;44.26;102600.34;5019748;28;20030;-86
2022/03/20 10:12:35;;;;;;;28.58;20.48;;;;;;;7.17;43.36;102592.41;5020332;28;20116;-86
2022/03/20 10:15:09;;;;;;;27.65;20.23;;;;;;;7.22;43.19;102600.19;5026839;28;20108;-85
2022/03/20 10:17:35;;;;;;;29.83;19.88;;;;;;;7.21;43.84;102596.69;5015815;28;20389;-87
2022/03/20 10:20:18;;;;;;;30.08;21.17;;;;;;;7.27;43.81;102600.03;5034389;28;20022;-84
2022/03/20 10:22:45;;;;;;;29.08;20.63;;;;;;;7.27;43.17;102590.31;5033543;28;20064;-85
2022/03/20 10:25:11;;;;;;;29.58;21.95;;;;;;;7.31;43.41;102601.66;5022330;28;20031;-85
2022/03/20 10:27:38;;;;;;;29.63;22.48;;;;;;;7.27;43.29;102600.03;5034427;28;20053;-85
2022/03/20 10:30:07;;;;;;;29.17;21.98;;;;;;;7.26;43.49;102587.72;5021349;28;20083;-84
2022/03/20 10:32:33;;;;;;;29.48;21.75;;;;;;;7.24;44.39;102579.84;5034165;28;20124;-84
2022/03/20 10:35:01;;;;;;;30.15;23.15;;;;;;;7.38;44.63;102590.81;5034152;28;20069;-85
2022/03/20 10:37:55;;;;;;;30.97;22.90;;;;;;;7.42;44.70;102583.63;5035791;28;20045;-86
2022/03/20 10:40:25;;;;;;;28.95;22.85;;;;;;;7.62;44.24;102587.34;5034941;28;20029;-85
2022/03/20 10:43:14;;;;;;;30.65;22.70;;;;;;;7.70;46.91;102591.44;5034839;28;20040;-87
2022/03/20 10:45:48;;;;;;;33.95;25.15;;;;;;;7.69;48.12;102604.72;5033237;28;20036;-87
2022/03/20 10:48:16;;;;;;;33.70;24.27;;;;;;;7.57;48.77;102590.16;5032631;28;20479;-86
2022/03/20 10:50:47;;;;;;;33.55;25.50;;;;;;;7.49;49.65;102574.56;5036412;28;20100;-87
2022/03/20 10:53:12;;;;;;;31.65;24.17;;;;;;;7.54;49.59;102585.84;5038407;28;20405;-88
2022/03/20 10:55:37;;;;;;;29.67;23.70;;;;;;;7.56;49.72;102602.53;5042455;28;20033;-86
2022/03/20 10:58:49;;;;;;;30.25;24.75;;;;;;;7.45;49.35;102594.09;5039022;28;20048;-89
2022/03/20 11:01:14;;;;;;;34.00;25.52;;;;;;;7.19;51.07;102587.06;5039712;28;20044;-85
2022/03/20 11:03:40;;;;;;;31.85;24.27;;;;;;;7.27;51.40;102598.25;5041050;28;20026;-86
2022/03/20 11:06:11;;;;;;;30.55;25.02;;;;;;;7.34;52.33;102597.09;5036814;28;20029;-85
2022/03/20 11:08:37;;;;;;;32.88;25.00;;;;;;;7.44;52.76;102608.22;5034924;28;20037;-85
2022/03/20 11:11:05;;;;;;;32.63;24.88;;;;;;;7.32;53.36;102593.66;5033101;28;20033;-86
2022/03/20 11:13:33;;;;;;;34.30;25.95;;;;;;;7.36;53.81;102615.56;5031197;28;20026;-86
2022/03/20 11:16:00;;;;;;;36.05;25.38;;;;;;;7.29;54.08;102606.13;5032252;28;20025;-86
2022/03/20 11:18:27;;;;;;;35.88;26.23;;;;;;;7.28;54.63;102609.66;5030934;28;20036;-86
2022/03/20 11:20:53;;;;;;;34.25;26.38;;;;;;;7.17;54.92;102617.97;5031609;28;20060;-87
2022/03/20 11:23:19;;;;;;;36.03;28.48;;;;;;;7.08;55.34;102605.94;5033166;28;20037;-88
2022/03/20 11:25:47;;;;;;;35.60;27.25;;;;;;;7.11;55.54;102613.78;5032975;28;20049;-87
2022/03/20 11:28:14;;;;;;;36.08;27.27;;;;;;;7.05;55.71;102600.75;5047624;28;20127;-86
2022/03/20 11:30:41;;;;;;;36.08;28.25;;;;;;;7.16;56.21;102626.81;5031686;28;20489;-86
2022/03/20 11:33:09;;;;;;;38.10;26.77;;;;;;;7.07;55.57;102604.22;5033274;28;20049;-88
2022/03/20 11:35:35;;;;;;;35.08;27.55;;;;;;;7.02;55.75;102599.06;5032849;28;20032;-86
2022/03/20 11:38:16;;;;;;;36.78;26.58;;;;;;;7.09;55.47;102620.88;5033762;28;20068;-87
2022/03/20 11:41:04;;;;;;;36.13;28.10;;;;;;;7.05;55.59;102613.97;5032980;28;20036;-86
2022/03/20 11:43:35;;;;;;;32.83;25.75;;;;;;;7.04;56.27;102617.53;5032166;28;20040;-87
2022/03/20 11:46:15;;;;;;;35.33;26.50;;;;;;;6.98;56.19;102630.97;5033581;28;20033;-88
2022/03/20 11:48:45;;;;;;;32.22;26.50;;;;;;;6.87;57.45;102619.88;5030961;28;20449;-87
2022/03/20 11:51:14;;;;;;;34.67;27.10;;;;;;;6.92;57.70;102623.22;5032173;28;20026;-87
2022/03/20 11:53:40;;;;;;;36.60;26.33;;;;;;;6.96;57.68;102620.44;5039082;28;20038;-86
2022/03/20 11:56:06;;;;;;;32.85;25.85;;;;;;;6.95;58.22;102610.78;5030609;28;20029;-87
2022/03/20 11:58:36;;;;;;;34.58;27.38;;;;;;;6.93;57.97;102601.16;5041851;28;20034;-86
2022/03/20 12:01:06;;;;;;;34.22;26.20;;;;;;;6.99;58.14;102609.75;5045855;28;20071;-87